sensor_id;sensor_type;location;lat;lon;timestamp;temperature;humidity
46041;DHT22;31779;49.124;19.190;2022-10-15T00:01:32;10.00;99.90
46041;DHT22;31779;49.124;19.190;2022-10-15T00:04:00;10.00;99.90
46041;DHT22;31779;49.124;19.190;2022-10-15T00:06:33;10.00;99.90
46041;DHT22;31779;49.124;19.190;2022-10-15T00:09:01;10.10;99.90
46041;DHT22;31779;49.124;19.190;2022-10-15T00:11:30;10.10;99.90
46041;DHT22;31779;49.124;19.190;2022-10-15T00:13:59;10.20;99.90
46041;DHT22;31779;49.124;19.190;2022-10-15T00:16:28;10.20;99.90
46041;DHT22;31779;49.124;19.190;2022-10-15T00:18:57;10.20;99.90
46041;DHT22;31779;49.124;19.190;2022-10-15T00:21:26;10.20;99.90
46041;DHT22;31779;49.124;19.190;2022-10-15T00:23:54;10.10;99.90
46041;DHT22;31779;49.124;19.190;2022-10-15T00:26:27;10.10;99.90
46041;DHT22;31779;49.124;19.190;2022-10-15T00:29:01;10.00;99.90
46041;DHT22;31779;49.124;19.190;2022-10-15T00:31:31;10.10;99.90
46041;DHT22;31779;49.124;19.190;2022-10-15T00:34:00;9.80;99.90
46041;DHT22;31779;49.124;19.190;2022-10-15T00:36:31;9.70;99.90
46041;DHT22;31779;49.124;19.190;2022-10-15T00:39:03;9.80;99.90
46041;DHT22;31779;49.124;19.190;2022-10-15T00:41:34;9.80;99.90
46041;DHT22;31779;49.124;19.190;2022-10-15T00:47:13;9.80;99.90
46041;DHT22;31779;49.124;19.190;2022-10-15T00:50:08;9.80;99.90
46041;DHT22;31779;49.124;19.190;2022-10-15T00:55:35;9.90;99.90
46041;DHT22;31779;49.124;19.190;2022-10-15T00:58:11;9.90;99.90
46041;DHT22;31779;49.124;19.190;2022-10-15T01:00:40;10.00;99.90
46041;DHT22;31779;49.124;19.190;2022-10-15T01:03:09;10.00;99.90
46041;DHT22;31779;49.124;19.190;2022-10-15T01:05:40;10.00;99.90
46041;DHT22;31779;49.124;19.190;2022-10-15T01:08:12;10.00;99.90
46041;DHT22;31779;49.124;19.190;2022-10-15T01:35:21;9.80;99.90
46041;DHT22;31779;49.124;19.190;2022-10-15T01:40:37;9.90;99.90
46041;DHT22;31779;49.124;19.190;2022-10-15T01:43:12;9.90;99.90
46041;DHT22;31779;49.124;19.190;2022-10-15T01:46:06;9.90;99.90
46041;DHT22;31779;49.124;19.190;2022-10-15T01:48:42;9.80;99.90
46041;DHT22;31779;49.124;19.190;2022-10-15T01:51:12;9.70;99.90
46041;DHT22;31779;49.124;19.190;2022-10-15T01:53:43;9.70;99.90
46041;DHT22;31779;49.124;19.190;2022-10-15T01:56:18;9.70;99.90
46041;DHT22;31779;49.124;19.190;2022-10-15T01:58:51;9.80;99.90
46041;DHT22;31779;49.124;19.190;2022-10-15T02:01:21;9.80;99.90
46041;DHT22;31779;49.124;19.190;2022-10-15T02:03:52;9.80;99.90
46041;DHT22;31779;49.124;19.190;2022-10-15T02:06:35;9.90;99.90
46041;DHT22;31779;49.124;19.190;2022-10-15T02:09:16;9.80;99.90
46041;DHT22;31779;49.124;19.190;2022-10-15T02:14:31;9.80;99.90
46041;DHT22;31779;49.124;19.190;2022-10-15T02:17:10;9.70;99.90
46041;DHT22;31779;49.124;19.190;2022-10-15T02:19:48;9.60;99.90
46041;DHT22;31779;49.124;19.190;2022-10-15T02:22:20;9.70;99.90
46041;DHT22;31779;49.124;19.190;2022-10-15T02:24:57;9.70;99.90
46041;DHT22;31779;49.124;19.190;2022-10-15T02:27:26;9.70;99.90
46041;DHT22;31779;49.124;19.190;2022-10-15T02:30:02;9.70;99.90
46041;DHT22;31779;49.124;19.190;2022-10-15T02:32:35;9.70;99.90
46041;DHT22;31779;49.124;19.190;2022-10-15T02:35:06;9.80;99.90
46041;DHT22;31779;49.124;19.190;2022-10-15T02:37:43;9.70;99.90
46041;DHT22;31779;49.124;19.190;2022-10-15T02:40:21;9.70;99.90
46041;DHT22;31779;49.124;19.190;2022-10-15T02:42:52;9.70;99.90
46041;DHT22;31779;49.124;19.190;2022-10-15T02:45:20;9.70;99.90
46041;DHT22;31779;49.124;19.190;2022-10-15T02:47:48;9.60;99.90
46041;DHT22;31779;49.124;19.190;2022-10-15T02:50:17;9.60;99.90
46041;DHT22;31779;49.124;19.190;2022-10-15T02:52:45;9.60;99.90
46041;DHT22;31779;49.124;19.190;2022-10-15T02:55:14;9.60;99.90
46041;DHT22;31779;49.124;19.190;2022-10-15T02:57:43;9.60;99.90
46041;DHT22;31779;49.124;19.190;2022-10-15T03:00:11;9.60;99.90
46041;DHT22;31779;49.124;19.190;2022-10-15T03:02:40;9.60;99.90
46041;DHT22;31779;49.124;19.190;2022-10-15T03:05:08;9.40;99.90
46041;DHT22;31779;49.124;19.190;2022-10-15T03:07:36;9.50;99.90
46041;DHT22;31779;49.124;19.190;2022-10-15T03:10:04;9.50;99.90
46041;DHT22;31779;49.124;19.190;2022-10-15T03:12:33;9.40;99.90
46041;DHT22;31779;49.124;19.190;2022-10-15T03:15:01;9.40;99.90
46041;DHT22;31779;49.124;19.190;2022-10-15T03:17:30;9.30;99.90
46041;DHT22;31779;49.124;19.190;2022-10-15T03:19:57;9.30;99.90
46041;DHT22;31779;49.124;19.190;2022-10-15T03:22:26;9.40;99.90
46041;DHT22;31779;49.124;19.190;2022-10-15T03:24:54;9.40;99.90
46041;DHT22;31779;49.124;19.190;2022-10-15T03:27:24;9.50;99.90
46041;DHT22;31779;49.124;19.190;2022-10-15T03:29:53;9.40;99.90
46041;DHT22;31779;49.124;19.190;2022-10-15T03:32:23;9.30;99.90
46041;DHT22;31779;49.124;19.190;2022-10-15T03:34:51;9.30;99.90
46041;DHT22;31779;49.124;19.190;2022-10-15T03:37:19;9.30;99.90
46041;DHT22;31779;49.124;19.190;2022-10-15T03:39:48;9.20;99.90
46041;DHT22;31779;49.124;19.190;2022-10-15T03:42:18;9.30;99.90
46041;DHT22;31779;49.124;19.190;2022-10-15T03:44:45;9.30;99.90
46041;DHT22;31779;49.124;19.190;2022-10-15T03:47:17;9.30;99.90
46041;DHT22;31779;49.124;19.190;2022-10-15T03:49:47;9.30;99.90
46041;DHT22;31779;49.124;19.190;2022-10-15T03:52:15;9.30;99.90
46041;DHT22;31779;49.124;19.190;2022-10-15T03:54:44;9.30;99.90
46041;DHT22;31779;49.124;19.190;2022-10-15T03:57:15;9.40;99.90
46041;DHT22;31779;49.124;19.190;2022-10-15T03:59:46;9.20;99.90
46041;DHT22;31779;49.124;19.190;2022-10-15T04:02:16;9.10;99.90
46041;DHT22;31779;49.124;19.190;2022-10-15T04:04:44;9.20;99.90
46041;DHT22;31779;49.124;19.190;2022-10-15T04:07:11;9.20;99.90
46041;DHT22;31779;49.124;19.190;2022-10-15T04:09:39;9.30;99.90
46041;DHT22;31779;49.124;19.190;2022-10-15T04:12:26;9.20;99.90
46041;DHT22;31779;49.124;19.190;2022-10-15T04:14:55;9.20;99.90
46041;DHT22;31779;49.124;19.190;2022-10-15T04:17:23;9.10;99.90
46041;DHT22;31779;49.124;19.190;2022-10-15T04:19:50;9.20;99.90
46041;DHT22;31779;49.124;19.190;2022-10-15T04:22:20;9.20;99.90
46041;DHT22;31779;49.124;19.190;2022-10-15T04:24:52;9.10;99.90
46041;DHT22;31779;49.124;19.190;2022-10-15T04:27:27;9.20;99.90
46041;DHT22;31779;49.124;19.190;2022-10-15T04:30:06;9.20;99.90
46041;DHT22;31779;49.124;19.190;2022-10-15T04:32:36;9.20;99.90
46041;DHT22;31779;49.124;19.190;2022-10-15T04:35:04;9.20;99.90
46041;DHT22;31779;49.124;19.190;2022-10-15T04:38:01;9.20;99.90
46041;DHT22;31779;49.124;19.190;2022-10-15T04:40:56;9.30;99.90
46041;DHT22;31779;49.124;19.190;2022-10-15T04:43:28;9.20;99.90
46041;DHT22;31779;49.124;19.190;2022-10-15T04:46:04;9.20;99.90
46041;DHT22;31779;49.124;19.190;2022-10-15T04:48:34;9.10;99.90
46041;DHT22;31779;49.124;19.190;2022-10-15T04:51:12;9.10;99.90
46041;DHT22;31779;49.124;19.190;2022-10-15T04:53:58;9.10;99.90
46041;DHT22;31779;49.124;19.190;2022-10-15T04:56:29;9.10;99.90
46041;DHT22;31779;49.124;19.190;2022-10-15T04:58:58;9.00;99.90
46041;DHT22;31779;49.124;19.190;2022-10-15T05:01:29;9.00;99.90
46041;DHT22;31779;49.124;19.190;2022-10-15T05:04:05;9.00;99.90
46041;DHT22;31779;49.124;19.190;2022-10-15T05:06:34;9.00;99.90
46041;DHT22;31779;49.124;19.190;2022-10-15T05:09:15;8.90;99.90
46041;DHT22;31779;49.124;19.190;2022-10-15T05:11:48;8.90;99.90
46041;DHT22;31779;49.124;19.190;2022-10-15T05:14:16;8.90;99.90
46041;DHT22;31779;49.124;19.190;2022-10-15T05:16:55;8.90;99.90
46041;DHT22;31779;49.124;19.190;2022-10-15T05:19:26;8.90;99.90
46041;DHT22;31779;49.124;19.190;2022-10-15T05:21:54;9.00;99.90
46041;DHT22;31779;49.124;19.190;2022-10-15T05:24:24;9.00;99.90
46041;DHT22;31779;49.124;19.190;2022-10-15T05:27:00;9.00;99.90
46041;DHT22;31779;49.124;19.190;2022-10-15T05:29:32;9.00;99.90
46041;DHT22;31779;49.124;19.190;2022-10-15T05:32:00;9.00;99.90
46041;DHT22;31779;49.124;19.190;2022-10-15T05:34:28;9.10;99.90
46041;DHT22;31779;49.124;19.190;2022-10-15T05:37:07;9.10;99.90
46041;DHT22;31779;49.124;19.190;2022-10-15T05:39:38;9.10;99.90
46041;DHT22;31779;49.124;19.190;2022-10-15T05:42:08;9.10;99.90
46041;DHT22;31779;49.124;19.190;2022-10-15T05:44:54;9.10;99.90
46041;DHT22;31779;49.124;19.190;2022-10-15T05:47:22;9.10;99.90
46041;DHT22;31779;49.124;19.190;2022-10-15T05:49:58;9.20;99.90
46041;DHT22;31779;49.124;19.190;2022-10-15T05:52:31;9.30;99.90
46041;DHT22;31779;49.124;19.190;2022-10-15T05:55:10;9.30;99.90
46041;DHT22;31779;49.124;19.190;2022-10-15T05:57:38;9.40;99.90
46041;DHT22;31779;49.124;19.190;2022-10-15T06:00:07;9.40;99.90
46041;DHT22;31779;49.124;19.190;2022-10-15T06:02:38;9.50;99.90
46041;DHT22;31779;49.124;19.190;2022-10-15T06:05:06;9.60;99.90
46041;DHT22;31779;49.124;19.190;2022-10-15T06:07:35;9.90;99.90
46041;DHT22;31779;49.124;19.190;2022-10-15T06:10:04;9.90;99.90
46041;DHT22;31779;49.124;19.190;2022-10-15T06:12:35;10.40;99.90
46041;DHT22;31779;49.124;19.190;2022-10-15T06:15:06;10.80;99.90
46041;DHT22;31779;49.124;19.190;2022-10-15T06:17:33;11.00;99.90
46041;DHT22;31779;49.124;19.190;2022-10-15T06:20:02;11.20;99.90
46041;DHT22;31779;49.124;19.190;2022-10-15T06:22:30;11.10;99.90
46041;DHT22;31779;49.124;19.190;2022-10-15T06:24:59;10.90;99.90
46041;DHT22;31779;49.124;19.190;2022-10-15T06:27:28;11.00;99.90
46041;DHT22;31779;49.124;19.190;2022-10-15T06:29:57;10.90;99.90
46041;DHT22;31779;49.124;19.190;2022-10-15T06:32:26;11.10;99.90
46041;DHT22;31779;49.124;19.190;2022-10-15T06:34:54;11.40;99.90
46041;DHT22;31779;49.124;19.190;2022-10-15T06:37:22;11.40;99.90
46041;DHT22;31779;49.124;19.190;2022-10-15T06:39:54;11.50;99.90
46041;DHT22;31779;49.124;19.190;2022-10-15T06:42:22;11.50;99.90
46041;DHT22;31779;49.124;19.190;2022-10-15T06:44:54;11.40;99.90
46041;DHT22;31779;49.124;19.190;2022-10-15T06:47:22;11.30;99.90
46041;DHT22;31779;49.124;19.190;2022-10-15T06:49:51;11.40;99.90
46041;DHT22;31779;49.124;19.190;2022-10-15T06:52:19;11.50;99.90
46041;DHT22;31779;49.124;19.190;2022-10-15T06:54:47;11.60;99.90
46041;DHT22;31779;49.124;19.190;2022-10-15T06:57:20;11.60;99.90
46041;DHT22;31779;49.124;19.190;2022-10-15T06:59:49;11.40;99.90
46041;DHT22;31779;49.124;19.190;2022-10-15T07:02:18;11.40;99.90
46041;DHT22;31779;49.124;19.190;2022-10-15T07:04:46;11.50;99.90
46041;DHT22;31779;49.124;19.190;2022-10-15T07:07:19;11.60;99.90
46041;DHT22;31779;49.124;19.190;2022-10-15T07:09:47;11.60;99.90
46041;DHT22;31779;49.124;19.190;2022-10-15T07:12:19;11.50;99.90
46041;DHT22;31779;49.124;19.190;2022-10-15T07:14:49;11.60;99.90
46041;DHT22;31779;49.124;19.190;2022-10-15T07:17:17;11.70;99.90
46041;DHT22;31779;49.124;19.190;2022-10-15T07:19:45;11.90;99.90
46041;DHT22;31779;49.124;19.190;2022-10-15T07:22:13;12.00;99.90
46041;DHT22;31779;49.124;19.190;2022-10-15T07:24:40;12.10;99.90
46041;DHT22;31779;49.124;19.190;2022-10-15T07:27:08;12.20;99.90
46041;DHT22;31779;49.124;19.190;2022-10-15T07:29:45;12.30;99.90
46041;DHT22;31779;49.124;19.190;2022-10-15T07:32:13;12.50;99.90
46041;DHT22;31779;49.124;19.190;2022-10-15T07:34:41;12.50;99.90
46041;DHT22;31779;49.124;19.190;2022-10-15T07:37:09;12.70;99.90
46041;DHT22;31779;49.124;19.190;2022-10-15T07:39:37;12.80;99.90
46041;DHT22;31779;49.124;19.190;2022-10-15T07:42:07;12.90;99.90
46041;DHT22;31779;49.124;19.190;2022-10-15T07:44:35;12.80;99.90
46041;DHT22;31779;49.124;19.190;2022-10-15T07:47:09;12.90;99.90
46041;DHT22;31779;49.124;19.190;2022-10-15T07:49:37;13.00;99.90
46041;DHT22;31779;49.124;19.190;2022-10-15T07:52:05;13.00;99.90
46041;DHT22;31779;49.124;19.190;2022-10-15T07:54:35;12.90;99.90
46041;DHT22;31779;49.124;19.190;2022-10-15T07:57:03;13.00;99.90
46041;DHT22;31779;49.124;19.190;2022-10-15T07:59:33;12.90;99.90
46041;DHT22;31779;49.124;19.190;2022-10-15T08:02:02;13.10;99.90
46041;DHT22;31779;49.124;19.190;2022-10-15T08:04:29;13.10;99.90
46041;DHT22;31779;49.124;19.190;2022-10-15T08:06:57;13.20;99.90
46041;DHT22;31779;49.124;19.190;2022-10-15T08:09:28;13.50;99.90
46041;DHT22;31779;49.124;19.190;2022-10-15T08:11:56;13.60;99.90
46041;DHT22;31779;49.124;19.190;2022-10-15T08:14:24;13.50;99.90
46041;DHT22;31779;49.124;19.190;2022-10-15T08:16:52;13.50;99.90
46041;DHT22;31779;49.124;19.190;2022-10-15T08:19:20;13.50;99.90
46041;DHT22;31779;49.124;19.190;2022-10-15T08:21:48;13.50;99.90
46041;DHT22;31779;49.124;19.190;2022-10-15T08:24:16;13.00;99.90
46041;DHT22;31779;49.124;19.190;2022-10-15T08:26:44;13.10;99.90
46041;DHT22;31779;49.124;19.190;2022-10-15T08:29:12;13.30;99.90
46041;DHT22;31779;49.124;19.190;2022-10-15T08:31:41;13.30;99.90
46041;DHT22;31779;49.124;19.190;2022-10-15T08:34:08;13.20;99.90
46041;DHT22;31779;49.124;19.190;2022-10-15T08:36:36;13.20;99.90
46041;DHT22;31779;49.124;19.190;2022-10-15T08:39:04;13.50;99.90
46041;DHT22;31779;49.124;19.190;2022-10-15T08:42:01;13.60;99.90
46041;DHT22;31779;49.124;19.190;2022-10-15T08:45:12;13.70;99.90
46041;DHT22;31779;49.124;19.190;2022-10-15T08:47:46;13.80;99.90
46041;DHT22;31779;49.124;19.190;2022-10-15T08:52:53;14.10;99.90
46041;DHT22;31779;49.124;19.190;2022-10-15T08:55:22;14.20;99.90
46041;DHT22;31779;49.124;19.190;2022-10-15T08:58:10;14.60;99.90
46041;DHT22;31779;49.124;19.190;2022-10-15T09:00:55;14.80;99.90
46041;DHT22;31779;49.124;19.190;2022-10-15T09:06:13;15.10;99.90
46041;DHT22;31779;49.124;19.190;2022-10-15T09:14:25;15.40;99.90
46041;DHT22;31779;49.124;19.190;2022-10-15T09:16:55;15.40;99.90
46041;DHT22;31779;49.124;19.190;2022-10-15T09:19:25;14.70;99.90
46041;DHT22;31779;49.124;19.190;2022-10-15T09:21:55;15.30;99.90
46041;DHT22;31779;49.124;19.190;2022-10-15T09:24:28;14.60;99.90
46041;DHT22;31779;49.124;19.190;2022-10-15T09:32:51;14.80;99.90
46041;DHT22;31779;49.124;19.190;2022-10-15T09:44:48;16.20;99.90
46041;DHT22;31779;49.124;19.190;2022-10-15T09:49:54;16.10;99.90
46041;DHT22;31779;49.124;19.190;2022-10-15T09:57:50;16.50;99.90
46041;DHT22;31779;49.124;19.190;2022-10-15T10:00:19;17.40;99.90
46041;DHT22;31779;49.124;19.190;2022-10-15T10:03:05;17.60;97.20
46041;DHT22;31779;49.124;19.190;2022-10-15T10:05:35;16.70;99.90
46041;DHT22;31779;49.124;19.190;2022-10-15T10:10:37;17.30;99.90
46041;DHT22;31779;49.124;19.190;2022-10-15T10:13:25;17.20;99.90
46041;DHT22;31779;49.124;19.190;2022-10-15T10:15:55;16.90;99.90
46041;DHT22;31779;49.124;19.190;2022-10-15T10:18:28;17.20;99.90
46041;DHT22;31779;49.124;19.190;2022-10-15T10:21:03;16.80;99.90
46041;DHT22;31779;49.124;19.190;2022-10-15T10:23:34;16.80;99.90
46041;DHT22;31779;49.124;19.190;2022-10-15T10:26:06;17.20;99.90
46041;DHT22;31779;49.124;19.190;2022-10-15T10:31:11;17.20;99.90
46041;DHT22;31779;49.124;19.190;2022-10-15T10:33:43;16.60;99.90
46041;DHT22;31779;49.124;19.190;2022-10-15T10:44:32;16.90;99.90
46041;DHT22;31779;49.124;19.190;2022-10-15T10:49:34;15.90;99.90
46041;DHT22;31779;49.124;19.190;2022-10-15T10:54:59;16.40;99.90
46041;DHT22;31779;49.124;19.190;2022-10-15T10:57:42;16.10;99.90
46041;DHT22;31779;49.124;19.190;2022-10-15T11:06:22;17.10;99.90
46041;DHT22;31779;49.124;19.190;2022-10-15T11:19:49;19.10;99.90
46041;DHT22;31779;49.124;19.190;2022-10-15T11:25:52;18.90;99.90
46041;DHT22;31779;49.124;19.190;2022-10-15T11:36:39;17.60;99.90
46041;DHT22;31779;49.124;19.190;2022-10-15T11:44:37;16.00;99.90
46041;DHT22;31779;49.124;19.190;2022-10-15T11:58:36;17.50;99.90
46041;DHT22;31779;49.124;19.190;2022-10-15T12:01:12;18.00;98.30
46041;DHT22;31779;49.124;19.190;2022-10-15T12:04:02;17.60;99.90
46041;DHT22;31779;49.124;19.190;2022-10-15T12:06:35;18.10;99.90
46041;DHT22;31779;49.124;19.190;2022-10-15T12:09:04;17.50;99.90
46041;DHT22;31779;49.124;19.190;2022-10-15T12:12:05;17.10;99.90
46041;DHT22;31779;49.124;19.190;2022-10-15T12:14:45;17.90;99.90
46041;DHT22;31779;49.124;19.190;2022-10-15T12:17:49;18.70;98.70
46041;DHT22;31779;49.124;19.190;2022-10-15T12:20:20;18.60;98.30
46041;DHT22;31779;49.124;19.190;2022-10-15T12:22:55;18.70;99.90
46041;DHT22;31779;49.124;19.190;2022-10-15T12:28:19;18.30;99.90
46041;DHT22;31779;49.124;19.190;2022-10-15T12:35:58;19.80;95.00
46041;DHT22;31779;49.124;19.190;2022-10-15T12:38:39;20.70;96.80
46041;DHT22;31779;49.124;19.190;2022-10-15T12:41:12;21.40;96.00
46041;DHT22;31779;49.124;19.190;2022-10-15T12:43:50;21.30;89.60
46041;DHT22;31779;49.124;19.190;2022-10-15T12:46:20;19.70;92.10
46041;DHT22;31779;49.124;19.190;2022-10-15T12:48:49;19.50;96.20
46041;DHT22;31779;49.124;19.190;2022-10-15T12:53:50;19.70;91.10
46041;DHT22;31779;49.124;19.190;2022-10-15T12:56:24;19.80;92.10
46041;DHT22;31779;49.124;19.190;2022-10-15T12:58:54;20.60;88.50
46041;DHT22;31779;49.124;19.190;2022-10-15T13:01:48;21.00;82.80
46041;DHT22;31779;49.124;19.190;2022-10-15T13:04:18;20.30;81.90
46041;DHT22;31779;49.124;19.190;2022-10-15T13:06:47;19.80;86.90
46041;DHT22;31779;49.124;19.190;2022-10-15T13:09:26;20.10;87.10
46041;DHT22;31779;49.124;19.190;2022-10-15T13:11:58;20.50;82.40
46041;DHT22;31779;49.124;19.190;2022-10-15T13:17:15;19.70;87.70
46041;DHT22;31779;49.124;19.190;2022-10-15T13:19:58;19.30;80.30
46041;DHT22;31779;49.124;19.190;2022-10-15T13:22:30;19.10;89.60
46041;DHT22;31779;49.124;19.190;2022-10-15T13:24:59;18.10;90.90
46041;DHT22;31779;49.124;19.190;2022-10-15T13:27:32;17.80;84.40
46041;DHT22;31779;49.124;19.190;2022-10-15T13:32:46;16.80;90.70
46041;DHT22;31779;49.124;19.190;2022-10-15T13:37:48;15.90;99.30
46041;DHT22;31779;49.124;19.190;2022-10-15T13:40:21;16.10;99.90
46041;DHT22;31779;49.124;19.190;2022-10-15T13:43:01;16.30;94.30
46041;DHT22;31779;49.124;19.190;2022-10-15T13:45:30;16.30;94.70
46041;DHT22;31779;49.124;19.190;2022-10-15T13:47:58;16.00;95.60
46041;DHT22;31779;49.124;19.190;2022-10-15T13:50:36;16.20;93.30
46041;DHT22;31779;49.124;19.190;2022-10-15T13:55:58;15.80;96.90
46041;DHT22;31779;49.124;19.190;2022-10-15T14:01:14;15.70;94.00
46041;DHT22;31779;49.124;19.190;2022-10-15T14:03:51;15.60;96.50
46041;DHT22;31779;49.124;19.190;2022-10-15T14:06:26;15.40;95.90
46041;DHT22;31779;49.124;19.190;2022-10-15T14:08:59;15.40;92.70
46041;DHT22;31779;49.124;19.190;2022-10-15T14:11:29;15.10;92.20
46041;DHT22;31779;49.124;19.190;2022-10-15T14:13:57;15.10;94.20
46041;DHT22;31779;49.124;19.190;2022-10-15T14:16:40;14.90;95.80
46041;DHT22;31779;49.124;19.190;2022-10-15T14:19:11;14.90;97.00
46041;DHT22;31779;49.124;19.190;2022-10-15T14:21:44;14.90;95.30
46041;DHT22;31779;49.124;19.190;2022-10-15T14:24:17;14.80;99.90
46041;DHT22;31779;49.124;19.190;2022-10-15T14:26:47;14.70;99.80
46041;DHT22;31779;49.124;19.190;2022-10-15T14:29:39;14.60;99.90
46041;DHT22;31779;49.124;19.190;2022-10-15T14:32:47;14.60;96.80
46041;DHT22;31779;49.124;19.190;2022-10-15T14:35:33;14.60;96.70
46041;DHT22;31779;49.124;19.190;2022-10-15T14:40:35;14.40;98.30
46041;DHT22;31779;49.124;19.190;2022-10-15T14:43:31;14.40;99.20
46041;DHT22;31779;49.124;19.190;2022-10-15T14:46:02;14.30;99.90
46041;DHT22;31779;49.124;19.190;2022-10-15T14:48:34;14.10;99.90
46041;DHT22;31779;49.124;19.190;2022-10-15T14:51:06;14.00;99.90
46041;DHT22;31779;49.124;19.190;2022-10-15T14:53:37;13.80;99.90
46041;DHT22;31779;49.124;19.190;2022-10-15T14:56:13;13.70;99.90
46041;DHT22;31779;49.124;19.190;2022-10-15T14:58:47;13.70;99.90
46041;DHT22;31779;49.124;19.190;2022-10-15T15:01:19;13.70;99.90
46041;DHT22;31779;49.124;19.190;2022-10-15T15:03:50;13.30;99.90
46041;DHT22;31779;49.124;19.190;2022-10-15T15:06:19;13.40;99.90
46041;DHT22;31779;49.124;19.190;2022-10-15T15:08:47;13.40;99.90
46041;DHT22;31779;49.124;19.190;2022-10-15T15:11:22;13.50;99.90
46041;DHT22;31779;49.124;19.190;2022-10-15T15:13:51;13.20;99.90
46041;DHT22;31779;49.124;19.190;2022-10-15T15:16:20;13.10;99.90
46041;DHT22;31779;49.124;19.190;2022-10-15T15:18:49;13.40;99.90
46041;DHT22;31779;49.124;19.190;2022-10-15T15:21:21;13.40;99.90
46041;DHT22;31779;49.124;19.190;2022-10-15T15:23:51;13.40;99.90
46041;DHT22;31779;49.124;19.190;2022-10-15T15:26:19;13.50;99.90
46041;DHT22;31779;49.124;19.190;2022-10-15T15:28:47;13.50;99.90
46041;DHT22;31779;49.124;19.190;2022-10-15T15:31:17;13.30;99.90
46041;DHT22;31779;49.124;19.190;2022-10-15T15:33:47;13.10;99.90
46041;DHT22;31779;49.124;19.190;2022-10-15T15:36:17;13.00;99.90
46041;DHT22;31779;49.124;19.190;2022-10-15T15:38:50;13.00;99.90
46041;DHT22;31779;49.124;19.190;2022-10-15T15:41:20;12.90;99.90
46041;DHT22;31779;49.124;19.190;2022-10-15T15:43:49;12.90;99.90
46041;DHT22;31779;49.124;19.190;2022-10-15T15:46:19;12.70;99.90
46041;DHT22;31779;49.124;19.190;2022-10-15T15:48:46;12.80;99.90
46041;DHT22;31779;49.124;19.190;2022-10-15T15:51:20;12.80;99.90
46041;DHT22;31779;49.124;19.190;2022-10-15T15:53:49;12.70;99.90
46041;DHT22;31779;49.124;19.190;2022-10-15T15:56:17;12.70;99.90
46041;DHT22;31779;49.124;19.190;2022-10-15T15:58:45;12.40;99.90
46041;DHT22;31779;49.124;19.190;2022-10-15T16:01:16;12.60;99.90
46041;DHT22;31779;49.124;19.190;2022-10-15T16:03:45;12.70;99.90
46041;DHT22;31779;49.124;19.190;2022-10-15T16:06:14;12.50;99.90
46041;DHT22;31779;49.124;19.190;2022-10-15T16:08:42;12.50;99.90
46041;DHT22;31779;49.124;19.190;2022-10-15T16:11:10;12.60;99.90
46041;DHT22;31779;49.124;19.190;2022-10-15T16:13:39;12.50;99.90
46041;DHT22;31779;49.124;19.190;2022-10-15T16:16:10;12.50;99.90
46041;DHT22;31779;49.124;19.190;2022-10-15T16:18:38;12.50;99.90
46041;DHT22;31779;49.124;19.190;2022-10-15T16:21:07;12.40;99.90
46041;DHT22;31779;49.124;19.190;2022-10-15T16:23:34;12.60;99.90
46041;DHT22;31779;49.124;19.190;2022-10-15T16:26:02;12.50;99.90
46041;DHT22;31779;49.124;19.190;2022-10-15T16:28:30;12.50;99.90
46041;DHT22;31779;49.124;19.190;2022-10-15T16:31:20;12.50;99.90
46041;DHT22;31779;49.124;19.190;2022-10-15T16:33:57;12.50;99.90
46041;DHT22;31779;49.124;19.190;2022-10-15T16:36:25;12.30;99.90
46041;DHT22;31779;49.124;19.190;2022-10-15T16:38:53;12.30;99.90
46041;DHT22;31779;49.124;19.190;2022-10-15T16:41:21;12.30;99.90
46041;DHT22;31779;49.124;19.190;2022-10-15T16:43:51;12.30;99.90
46041;DHT22;31779;49.124;19.190;2022-10-15T16:46:19;12.20;99.90
46041;DHT22;31779;49.124;19.190;2022-10-15T16:48:54;12.20;99.90
46041;DHT22;31779;49.124;19.190;2022-10-15T16:51:23;12.20;99.90
46041;DHT22;31779;49.124;19.190;2022-10-15T16:53:53;12.20;99.90
46041;DHT22;31779;49.124;19.190;2022-10-15T16:56:27;12.20;99.90
46041;DHT22;31779;49.124;19.190;2022-10-15T16:58:56;12.20;99.90
46041;DHT22;31779;49.124;19.190;2022-10-15T17:01:27;12.00;99.90
46041;DHT22;31779;49.124;19.190;2022-10-15T17:03:57;12.00;99.90
46041;DHT22;31779;49.124;19.190;2022-10-15T17:06:28;11.80;99.90
46041;DHT22;31779;49.124;19.190;2022-10-15T17:09:00;11.90;99.90
46041;DHT22;31779;49.124;19.190;2022-10-15T17:11:34;11.90;99.90
46041;DHT22;31779;49.124;19.190;2022-10-15T17:14:06;11.80;99.90
46041;DHT22;31779;49.124;19.190;2022-10-15T17:16:46;11.80;99.90
46041;DHT22;31779;49.124;19.190;2022-10-15T17:19:17;12.00;99.90
46041;DHT22;31779;49.124;19.190;2022-10-15T17:21:45;11.70;99.90
46041;DHT22;31779;49.124;19.190;2022-10-15T17:24:16;11.70;99.90
46041;DHT22;31779;49.124;19.190;2022-10-15T17:26:45;11.80;99.90
46041;DHT22;31779;49.124;19.190;2022-10-15T17:29:16;11.90;99.90
46041;DHT22;31779;49.124;19.190;2022-10-15T17:31:48;11.90;99.90
46041;DHT22;31779;49.124;19.190;2022-10-15T17:34:17;11.90;99.90
46041;DHT22;31779;49.124;19.190;2022-10-15T17:36:47;11.90;99.90
46041;DHT22;31779;49.124;19.190;2022-10-15T17:39:17;11.90;99.90
46041;DHT22;31779;49.124;19.190;2022-10-15T17:41:46;11.90;99.90
46041;DHT22;31779;49.124;19.190;2022-10-15T17:44:15;12.00;99.90
46041;DHT22;31779;49.124;19.190;2022-10-15T17:46:44;12.00;99.90
46041;DHT22;31779;49.124;19.190;2022-10-15T17:49:12;12.00;99.90
46041;DHT22;31779;49.124;19.190;2022-10-15T17:51:45;12.00;99.90
46041;DHT22;31779;49.124;19.190;2022-10-15T17:54:14;11.90;99.90
46041;DHT22;31779;49.124;19.190;2022-10-15T17:56:43;12.00;99.90
46041;DHT22;31779;49.124;19.190;2022-10-15T17:59:12;12.00;99.90
46041;DHT22;31779;49.124;19.190;2022-10-15T18:01:43;11.90;99.90
46041;DHT22;31779;49.124;19.190;2022-10-15T18:04:29;11.90;99.90
46041;DHT22;31779;49.124;19.190;2022-10-15T18:06:57;12.00;99.90
46041;DHT22;31779;49.124;19.190;2022-10-15T18:09:26;12.00;99.90
46041;DHT22;31779;49.124;19.190;2022-10-15T18:11:57;12.00;99.90
46041;DHT22;31779;49.124;19.190;2022-10-15T18:14:29;12.00;99.90
46041;DHT22;31779;49.124;19.190;2022-10-15T18:16:58;11.80;99.90
46041;DHT22;31779;49.124;19.190;2022-10-15T18:19:26;11.80;99.90
46041;DHT22;31779;49.124;19.190;2022-10-15T18:21:55;11.80;99.90
46041;DHT22;31779;49.124;19.190;2022-10-15T18:24:25;11.90;99.90
46041;DHT22;31779;49.124;19.190;2022-10-15T18:26:53;11.90;99.90
46041;DHT22;31779;49.124;19.190;2022-10-15T18:29:23;11.80;99.90
46041;DHT22;31779;49.124;19.190;2022-10-15T18:31:52;11.80;99.90